Sir Richard — WDJ7255 — position and weather

sailwx.info

Track history (hours):
 
Tides and Currents Weather Stations Pressure Air Temp Water Temp Dewpoint Dewpoint Depression Visibility Wind Speed Wind Dir Waves Ship Positions

Sir Richard

Owner: CANTON MARINE TOWING CO., CANTON, MO. More information available from US FCC via Universal Licensing System and Coast Guard Vessel Documentation Center.

Last reported at 2018-May-01 16:04 UTC. Time now 2018-May-26 14:03 UTC.
Position N 39°09' W 090°43'.
Warning: this ship's position is 24 days out of date.

; draft 3 m.

Type: Towing. MMSI: 368004920.

Date/timePositionNaut miles runAvg speedWind from/ knotsBaromVisibWave heightAir tempDewpointWater temp
2018-May-01 16:04N 39°09' W 090°43'0 3.7
2018-May-01 15:58N 39°09' W 090°43'2 3.7
2018-May-01 15:30N 39°07' W 090°41'2 3.4
2018-May-01 14:56N 39°05' W 090°41'2 3.9
2018-May-01 14:30N 39°04' W 090°42'2 3.2
2018-May-01 14:00N 39°02' W 090°43'2 3.7
2018-May-01 13:30N 39°01' W 090°42'1 1.3
2018-May-01 13:00N 39°00' W 090°41'0 0.3
2018-May-01 12:30N 39°00' W 090°41'1 2.0
2018-May-01 12:00N 38°59' W 090°41'1 2.6
2018-May-01 11:30N 38°58' W 090°40'0 0.1
2018-May-01 10:21N 38°58' W 090°40'0 0.0
2018-May-01 10:00N 38°58' W 090°40'0 0.0
2018-May-01 09:30N 38°58' W 090°40'0 0.3
2018-May-01 09:00N 38°58' W 090°40'2 3.2
2018-May-01 08:30N 38°56' W 090°40'2 3.1
2018-May-01 08:00N 38°55' W 090°39'1 2.3
2018-May-01 07:30N 38°54' W 090°38'0 0.0
2018-May-01 07:00N 38°54' W 090°38'1 2.6
2018-May-01 06:30N 38°53' W 090°37'2 3.1
2018-May-01 06:00N 38°52' W 090°36'2 3.2
2018-May-01 05:30N 38°52' W 090°33'1 3.0
2018-May-01 05:00N 38°53' W 090°32'2 3.1
2018-May-01 04:30N 38°54' W 090°31'2 3.0
2018-May-01 04:00N 38°56' W 090°30'1 2.9
2018-May-01 03:30N 38°57' W 090°29'2 3.1
2018-May-01 03:00N 38°57' W 090°27'2 3.2
2018-May-01 02:30N 38°58' W 090°25'2 3.1
2018-May-01 02:00N 38°57' W 090°23'2 3.5
2018-May-01 01:30N 38°57' W 090°21'2 3.6
2018-May-01 01:00N 38°56' W 090°19'2 3.4
2018-May-01 00:30N 38°55' W 090°17'2 3.6
2018-May-01 00:00N 38°55' W 090°15'2 3.5
2018-Apr-30 23:25N 38°54' W 090°13'1 3.0
2018-Apr-30 23:00N 38°53' W 090°11'2 3.6
2018-Apr-30 22:30N 38°52' W 090°09'1 1.2
2018-Apr-30 22:00N 38°52' W 090°09'1 2.1
2018-Apr-30 21:30N 38°51' W 090°08'0 0.0
2018-Apr-30 21:00N 38°51' W 090°08'0 0.0
2018-Apr-30 20:29N 38°51' W 090°08'1 1.9
2018-Apr-30 20:00N 38°51' W 090°07'1 2.5
2018-Apr-30 19:30N 38°50' W 090°07'2 3.0
2018-Apr-30 19:00N 38°48' W 090°07'2 1.4
2018-Apr-30 17:30N 38°46' W 090°08'2 3.8
2018-Apr-30 16:59N 38°45' W 090°09'3 4.1
2018-Apr-30 16:20N 38°42' W 090°11'0 1.0
2018-Apr-30 15:59N 38°42' W 090°11'1 2.3
2018-Apr-30 15:30N 38°41' W 090°11'0 0.0
2018-Apr-30 15:00N 38°41' W 090°11'0 0.0
2018-Apr-30 14:30N 38°41' W 090°11'0 0.0
2018-Apr-30 14:00N 38°41' W 090°11'0 0.9
2018-Apr-30 13:30N 38°40' W 090°11'1 1.7
2018-Apr-30 13:00N 38°40' W 090°11'1 1.7
2018-Apr-30 12:29N 38°39' W 090°11'0 0.6
2018-Apr-30 11:51N 38°38' W 090°11'0 0.0
2018-Apr-30 11:30N 38°38' W 090°11'0 0.0
2018-Apr-30 10:58N 38°38' W 090°11'0 0.4
2018-Apr-30 10:30N 38°38' W 090°11'1 2.1
2018-Apr-30 10:00N 38°37' W 090°11'1 1.9
2018-Apr-30 09:30N 38°36' W 090°11'5 0.9
2018-Apr-30 03:57N 38°32' W 090°15'4 8.9
2018-Apr-30 03:28N 38°36' W 090°12'1 2.2
2018-Apr-30 02:56N 38°37' W 090°11'2 5.8
2018-Apr-30 02:30N 38°39' W 090°11'3 5.1
2018-Apr-30 02:00N 38°42' W 090°11'2 2.9
2018-Apr-30 01:08N 38°44' W 090°10'1 4.4
2018-Apr-30 00:59N 38°45' W 090°09'2 4.3
2018-Apr-30 00:26N 38°47' W 090°08'2 5.1
2018-Apr-30 00:00N 38°49' W 090°07'3 5.6
2018-Apr-29 23:30N 38°51' W 090°08'1 2.6
2018-Apr-29 23:00N 38°52' W 090°09'2 3.5
2018-Apr-29 22:30N 38°53' W 090°11'0 0.0
2018-Apr-29 21:59N 38°53' W 090°11'0 0.0
2018-Apr-29 21:30N 38°53' W 090°11'1 1.7
2018-Apr-29 21:00N 38°54' W 090°12'2 4.7
2018-Apr-29 20:30N 38°55' W 090°14'0 0.4
2018-Apr-29 20:00N 38°55' W 090°14'0 0.0
2018-Apr-29 19:30N 38°55' W 090°14'1 2.3
2018-Apr-29 19:00N 38°55' W 090°16'3 5.6
2018-Apr-29 18:30N 38°56' W 090°19'3 5.7
2018-Apr-29 18:00N 38°57' W 090°23'3 5.7
2018-Apr-29 17:30N 38°58' W 090°26'3 5.6
2018-Apr-29 17:00N 38°56' W 090°29'3 6.0
2018-Apr-29 16:30N 38°54' W 090°31'3 5.7
2018-Apr-29 16:00N 38°52' W 090°34'3 5.4
2018-Apr-29 15:30N 38°53' W 090°38'3 5.9
2018-Apr-29 15:00N 38°56' W 090°40'4 6.1
2018-Apr-29 14:21N 38°60' W 090°41'1 2.2
2018-Apr-29 14:00N 39°00' W 090°41'6 5.1
2018-Apr-29 12:46N 39°07' W 090°41'2 5.9
2018-Apr-29 12:30N 39°08' W 090°42'2 0.1
2018-Apr-28 08:08N 39°10' W 090°43'0 3.7
2018-Apr-28 08:00N 39°09' W 090°43'2 3.6
2018-Apr-28 07:30N 39°08' W 090°42'3 3.5
2018-Apr-28 06:43N 39°05' W 090°41'1 3.6
2018-Apr-28 06:30N 39°04' W 090°42'2 3.4
2018-Apr-28 06:00N 39°03' W 090°43'2 3.5
2018-Apr-28 05:30N 39°01' W 090°42'1 2.1
2018-Apr-28 05:00N 39°00' W 090°41'1 0.8
2018-Apr-28 03:48N 38°59' W 090°40'0 0.3
2018-Apr-28 02:32N 38°59' W 090°40'2 4.0
2018-Apr-28 02:07N 38°57' W 090°40'0 4.1
2018-Apr-28 02:00N 38°57' W 090°40'2 3.9
2018-Apr-28 01:30N 38°55' W 090°39'2 3.9
2018-Apr-28 01:00N 38°54' W 090°38'2 3.8
2018-Apr-28 00:30N 38°52' W 090°36'2 3.9
2018-Apr-28 00:00N 38°52' W 090°34'2 3.7
2018-Apr-27 23:30N 38°53' W 090°32'2 3.9
2018-Apr-27 23:00N 38°55' W 090°30'2 3.6
2018-Apr-27 22:30N 38°56' W 090°29'2 3.4
2018-Apr-27 21:58N 38°57' W 090°27'2 3.9
2018-Apr-27 21:30N 38°58' W 090°25'2 3.8
2018-Apr-27 21:00N 38°57' W 090°23'2 4.2
2018-Apr-27 20:30N 38°56' W 090°20'2 4.2
2018-Apr-27 20:00N 38°55' W 090°18'2 4.3
2018-Apr-27 19:30N 38°55' W 090°15'2 3.9
2018-Apr-27 19:00N 38°54' W 090°13'2 3.2
2018-Apr-27 18:30N 38°53' W 090°11'2 3.9
2018-Apr-27 17:59N 38°52' W 090°09'0 0.7
2018-Apr-27 17:30N 38°52' W 090°09'2 3.5
2018-Apr-27 17:00N 38°51' W 090°07'2 3.0
2018-Apr-27 16:30N 38°49' W 090°07'1 2.0
2018-Apr-27 16:00N 38°49' W 090°07'3 5.1
2018-Apr-27 15:30N 38°46' W 090°08'2 4.8
2018-Apr-27 14:59N 38°44' W 090°10'2 4.1
2018-Apr-27 14:30N 38°42' W 090°11'1 1.6
2018-Apr-27 14:00N 38°42' W 090°11'2 4.0
2018-Apr-27 13:30N 38°40' W 090°11'1 1.7
2018-Apr-27 12:48N 38°38' W 090°11'0 0.0
2018-Apr-27 12:29N 38°38' W 090°11'0 0.0
2018-Apr-27 10:29N 38°38' W 090°11'0 0.0
2018-Apr-27 10:00N 38°38' W 090°11'0 0.0
2018-Apr-27 09:23N 38°38' W 090°11'0 0.0
2018-Apr-27 08:58N 38°38' W 090°11'0 0.0
2018-Apr-27 08:30N 38°38' W 090°11'0 0.7
2018-Apr-27 07:57N 38°38' W 090°11'2 2.6
2018-Apr-27 07:20N 38°36' W 090°11'0 1.1
2018-Apr-27 06:56N 38°36' W 090°11'0 0.7
2018-Apr-27 06:30N 38°36' W 090°12'3 0.4
2018-Apr-26 22:02N 38°39' W 090°11'0 9.2
2018-Apr-26 22:00N 38°39' W 090°11'3 4.4
2018-Apr-26 21:16N 38°42' W 090°11'1 3.6
2018-Apr-26 20:56N 38°43' W 090°10'2 4.1
2018-Apr-26 20:30N 38°45' W 090°09'3 4.7
2018-Apr-26 19:57N 38°47' W 090°07'3 7.4
2018-Apr-26 19:30N 38°50' W 090°06'3 5.4
2018-Apr-26 19:00N 38°52' W 090°09'1 2.4
2018-Apr-26 18:30N 38°53' W 090°10'3 6.9
2018-Apr-26 18:00N 38°55' W 090°14'4 7.3
2018-Apr-26 17:30N 38°55' W 090°19'4 7.4
2018-Apr-26 17:00N 38°57' W 090°23'4 7.4
2018-Apr-26 16:30N 38°57' W 090°27'4 7.3
2018-Apr-26 16:00N 38°55' W 090°31'4 7.2
2018-Apr-26 15:30N 38°52' W 090°34'3 6.7
2018-Apr-26 15:00N 38°54' W 090°38'4 7.6
2018-Apr-26 14:30N 38°57' W 090°40'3 6.6
2018-Apr-26 14:00N 39°00' W 090°41'1 1.7
2018-Apr-26 13:30N 39°01' W 090°42'3 5.2
2018-Apr-26 12:59N 39°04' W 090°43'0 0.5
2018-Apr-26 12:30N 39°04' W 090°42'0 0.0
2018-Apr-26 12:00N 39°04' W 090°42'0 0.0
2018-Apr-26 11:30N 39°04' W 090°42'0 0.0
2018-Apr-26 11:00N 39°04' W 090°42'0 0.0
2018-Apr-26 10:30N 39°04' W 090°42'0 0.0
2018-Apr-26 10:00N 39°04' W 090°42'0 0.0
2018-Apr-26 09:30N 39°04' W 090°42'1 2.3
2018-Apr-26 08:56N 39°05' W 090°41'3 6.5
2018-Apr-26 08:30N 39°08' W 090°42'  
2018-Apr-23 19:56N 39°10' W 090°43'2 3.6
2018-Apr-23 19:29N 39°08' W 090°42'3 3.9
2018-Apr-23 18:49N 39°06' W 090°41'1 3.6
2018-Apr-23 18:30N 39°05' W 090°41'2 3.7
2018-Apr-23 18:00N 39°03' W 090°43'2 3.3
2018-Apr-23 17:30N 39°02' W 090°42'2 3.3
2018-Apr-23 16:59N 39°00' W 090°41'0 0.6
2018-Apr-23 16:30N 39°00' W 090°41'1 1.7
2018-Apr-23 16:00N 38°59' W 090°40'0 0.0
2018-Apr-23 15:30N 38°59' W 090°40'0 0.0
2018-Apr-23 14:53N 38°59' W 090°40'1 3.6
2018-Apr-23 14:30N 38°58' W 090°40'2 4.0
2018-Apr-23 14:00N 38°56' W 090°40'2 3.9
2018-Apr-23 13:30N 38°54' W 090°38'2 3.9
2018-Apr-23 13:00N 38°53' W 090°37'2 3.9
2018-Apr-23 12:30N 38°52' W 090°35'2 4.2
2018-Apr-23 12:00N 38°53' W 090°32'2 4.2
2018-Apr-23 11:30N 38°54' W 090°31'2 4.2
2018-Apr-23 11:00N 38°56' W 090°29'2 4.1
2018-Apr-23 10:30N 38°57' W 090°27'2 4.0
2018-Apr-23 10:00N 38°58' W 090°25'2 4.2
2018-Apr-23 09:30N 38°57' W 090°22'2 4.4
2018-Apr-23 09:00N 38°56' W 090°20'2 4.3
2018-Apr-23 08:30N 38°55' W 090°17'2 4.5
2018-Apr-23 08:00N 38°55' W 090°14'2 4.4
2018-Apr-23 07:30N 38°54' W 090°12'2 4.6
2018-Apr-23 07:00N 38°52' W 090°10'1 1.9
2018-Apr-23 06:30N 38°52' W 090°09'2 3.7
2018-Apr-23 06:00N 38°51' W 090°07'2 3.4
2018-Apr-23 05:30N 38°49' W 090°07'2 4.4
2018-Apr-23 05:00N 38°47' W 090°07'0 0.0
2018-Apr-23 04:30N 38°47' W 090°07'2 3.9
2018-Apr-23 04:00N 38°45' W 090°09'1 2.4
2018-Apr-23 03:30N 38°44' W 090°09'1 1.5
2018-Apr-23 03:00N 38°44' W 090°10'2 3.8
2018-Apr-23 02:30N 38°42' W 090°11'0 0.3
2018-Apr-23 02:00N 38°42' W 090°11'2 3.2
2018-Apr-23 01:30N 38°40' W 090°11'1 1.5
2018-Apr-23 00:58N 38°40' W 090°11'1 2.3
2018-Apr-23 00:30N 38°39' W 090°11'2 3.1
2018-Apr-23 00:00N 38°37' W 090°11'2 2.8
2018-Apr-22 23:25N 38°36' W 090°12'5 0.7
2018-Apr-22 15:27N 38°31' W 090°16'5 8.8
2018-Apr-22 14:54N 38°35' W 090°13'3 8.9
2018-Apr-22 14:30N 38°38' W 090°11'3 6.5
2018-Apr-22 14:00N 38°41' W 090°11'1 2.3
2018-Apr-22 13:30N 38°42' W 090°11'3 5.5
2018-Apr-22 13:00N 38°45' W 090°09'3 5.5
2018-Apr-22 12:30N 38°47' W 090°07'4 7.5
2018-Apr-22 12:00N 38°51' W 090°07'2 4.0
2018-Apr-22 11:29N 38°52' W 090°09'3 5.7
2018-Apr-22 11:00N 38°54' W 090°12'3 6.7
2018-Apr-22 10:30N 38°55' W 090°16'3 5.8
2018-Apr-22 10:00N 38°56' W 090°19'4 7.2
2018-Apr-22 09:30N 38°58' W 090°23'3 7.0
2018-Apr-22 09:00N 38°57' W 090°28'4 7.2
2018-Apr-22 08:30N 38°55' W 090°31'3 6.9
2018-Apr-22 08:00N 38°52' W 090°34'3 6.4
2018-Apr-22 07:30N 38°54' W 090°38'4 7.3
2018-Apr-22 07:00N 38°57' W 090°40'3 6.9
2018-Apr-22 06:30N 39°00' W 090°41'1 1.9
2018-Apr-22 06:00N 39°01' W 090°42'2 4.1
2018-Apr-22 05:30N 39°03' W 090°43'0 0.0
2018-Apr-22 05:00N 39°03' W 090°43'0 0.0
2018-Apr-22 04:30N 39°03' W 090°43'0 0.0
2018-Apr-22 04:00N 39°03' W 090°43'0 0.0
2018-Apr-22 03:30N 39°03' W 090°43'0 0.0
2018-Apr-22 03:00N 39°03' W 090°43'0 0.0
2018-Apr-22 02:30N 39°03' W 090°43'0 0.0
2018-Apr-22 02:00N 39°03' W 090°43'0 0.1
2018-Apr-22 01:30N 39°03' W 090°43'0 0.1
2018-Apr-22 01:00N 39°03' W 090°43'3 6.3
2018-Apr-22 00:28N 39°06' W 090°41'3 7.3
2018-Apr-22 00:00N 39°09' W 090°43'  
Track history (hours):
 
Tides and Currents Weather Stations Pressure Air Temp Water Temp Dewpoint Dewpoint Depression Visibility Wind Speed Wind Dir Waves Ship Positions

Sir Richard

Owner: CANTON MARINE TOWING CO., CANTON, MO. More information available from US FCC via Universal Licensing System and Coast Guard Vessel Documentation Center.

Last reported at 2018-May-01 16:04 UTC. Time now 2018-May-26 14:03 UTC.
Position N 39°09' W 090°43'.
Warning: this ship's position is 24 days out of date.

; draft 3 m.

Type: Towing. MMSI: 368004920.

Date/timePositionNaut miles runAvg speedWind from/ knotsBaromVisibWave heightAir tempDewpointWater temp
2018-May-01 16:04N 39°09' W 090°43'0 3.7
2018-May-01 15:58N 39°09' W 090°43'2 3.7
2018-May-01 15:30N 39°07' W 090°41'2 3.4
2018-May-01 14:56N 39°05' W 090°41'2 3.9
2018-May-01 14:30N 39°04' W 090°42'2 3.2
2018-May-01 14:00N 39°02' W 090°43'2 3.7
2018-May-01 13:30N 39°01' W 090°42'1 1.3
2018-May-01 13:00N 39°00' W 090°41'0 0.3
2018-May-01 12:30N 39°00' W 090°41'1 2.0
2018-May-01 12:00N 38°59' W 090°41'1 2.6
2018-May-01 11:30N 38°58' W 090°40'0 0.1
2018-May-01 10:21N 38°58' W 090°40'0 0.0
2018-May-01 10:00N 38°58' W 090°40'0 0.0
2018-May-01 09:30N 38°58' W 090°40'0 0.3
2018-May-01 09:00N 38°58' W 090°40'2 3.2
2018-May-01 08:30N 38°56' W 090°40'2 3.1
2018-May-01 08:00N 38°55' W 090°39'1 2.3
2018-May-01 07:30N 38°54' W 090°38'0 0.0
2018-May-01 07:00N 38°54' W 090°38'1 2.6
2018-May-01 06:30N 38°53' W 090°37'2 3.1
2018-May-01 06:00N 38°52' W 090°36'2 3.2
2018-May-01 05:30N 38°52' W 090°33'1 3.0
2018-May-01 05:00N 38°53' W 090°32'2 3.1
2018-May-01 04:30N 38°54' W 090°31'2 3.0
2018-May-01 04:00N 38°56' W 090°30'1 2.9
2018-May-01 03:30N 38°57' W 090°29'2 3.1
2018-May-01 03:00N 38°57' W 090°27'2 3.2
2018-May-01 02:30N 38°58' W 090°25'2 3.1
2018-May-01 02:00N 38°57' W 090°23'2 3.5
2018-May-01 01:30N 38°57' W 090°21'2 3.6
2018-May-01 01:00N 38°56' W 090°19'2 3.4
2018-May-01 00:30N 38°55' W 090°17'2 3.6
2018-May-01 00:00N 38°55' W 090°15'2 3.5
2018-Apr-30 23:25N 38°54' W 090°13'1 3.0
2018-Apr-30 23:00N 38°53' W 090°11'2 3.6
2018-Apr-30 22:30N 38°52' W 090°09'1 1.2
2018-Apr-30 22:00N 38°52' W 090°09'1 2.1
2018-Apr-30 21:30N 38°51' W 090°08'0 0.0
2018-Apr-30 21:00N 38°51' W 090°08'0 0.0
2018-Apr-30 20:29N 38°51' W 090°08'1 1.9
2018-Apr-30 20:00N 38°51' W 090°07'1 2.5
2018-Apr-30 19:30N 38°50' W 090°07'2 3.0
2018-Apr-30 19:00N 38°48' W 090°07'2 1.4
2018-Apr-30 17:30N 38°46' W 090°08'2 3.8
2018-Apr-30 16:59N 38°45' W 090°09'3 4.1
2018-Apr-30 16:20N 38°42' W 090°11'0 1.0
2018-Apr-30 15:59N 38°42' W 090°11'1 2.3
2018-Apr-30 15:30N 38°41' W 090°11'0 0.0
2018-Apr-30 15:00N 38°41' W 090°11'0 0.0
2018-Apr-30 14:30N 38°41' W 090°11'0 0.0
2018-Apr-30 14:00N 38°41' W 090°11'0 0.9
2018-Apr-30 13:30N 38°40' W 090°11'1 1.7
2018-Apr-30 13:00N 38°40' W 090°11'1 1.7
2018-Apr-30 12:29N 38°39' W 090°11'0 0.6
2018-Apr-30 11:51N 38°38' W 090°11'0 0.0
2018-Apr-30 11:30N 38°38' W 090°11'0 0.0
2018-Apr-30 10:58N 38°38' W 090°11'0 0.4
2018-Apr-30 10:30N 38°38' W 090°11'1 2.1
2018-Apr-30 10:00N 38°37' W 090°11'1 1.9
2018-Apr-30 09:30N 38°36' W 090°11'5 0.9
2018-Apr-30 03:57N 38°32' W 090°15'4 8.9
2018-Apr-30 03:28N 38°36' W 090°12'1 2.2
2018-Apr-30 02:56N 38°37' W 090°11'2 5.8
2018-Apr-30 02:30N 38°39' W 090°11'3 5.1
2018-Apr-30 02:00N 38°42' W 090°11'2 2.9
2018-Apr-30 01:08N 38°44' W 090°10'1 4.4
2018-Apr-30 00:59N 38°45' W 090°09'2 4.3
2018-Apr-30 00:26N 38°47' W 090°08'2 5.1
2018-Apr-30 00:00N 38°49' W 090°07'3 5.6
2018-Apr-29 23:30N 38°51' W 090°08'1 2.6
2018-Apr-29 23:00N 38°52' W 090°09'2 3.5
2018-Apr-29 22:30N 38°53' W 090°11'0 0.0
2018-Apr-29 21:59N 38°53' W 090°11'0 0.0
2018-Apr-29 21:30N 38°53' W 090°11'1 1.7
2018-Apr-29 21:00N 38°54' W 090°12'2 4.7
2018-Apr-29 20:30N 38°55' W 090°14'0 0.4
2018-Apr-29 20:00N 38°55' W 090°14'0 0.0
2018-Apr-29 19:30N 38°55' W 090°14'1 2.3
2018-Apr-29 19:00N 38°55' W 090°16'3 5.6
2018-Apr-29 18:30N 38°56' W 090°19'3 5.7
2018-Apr-29 18:00N 38°57' W 090°23'3 5.7
2018-Apr-29 17:30N 38°58' W 090°26'3 5.6
2018-Apr-29 17:00N 38°56' W 090°29'3 6.0
2018-Apr-29 16:30N 38°54' W 090°31'3 5.7
2018-Apr-29 16:00N 38°52' W 090°34'3 5.4
2018-Apr-29 15:30N 38°53' W 090°38'3 5.9
2018-Apr-29 15:00N 38°56' W 090°40'4 6.1
2018-Apr-29 14:21N 38°60' W 090°41'1 2.2
2018-Apr-29 14:00N 39°00' W 090°41'6 5.1
2018-Apr-29 12:46N 39°07' W 090°41'2 5.9
2018-Apr-29 12:30N 39°08' W 090°42'2 0.1
2018-Apr-28 08:08N 39°10' W 090°43'0 3.7
2018-Apr-28 08:00N 39°09' W 090°43'2 3.6
2018-Apr-28 07:30N 39°08' W 090°42'3 3.5
2018-Apr-28 06:43N 39°05' W 090°41'1 3.6
2018-Apr-28 06:30N 39°04' W 090°42'2 3.4
2018-Apr-28 06:00N 39°03' W 090°43'2 3.5
2018-Apr-28 05:30N 39°01' W 090°42'1 2.1
2018-Apr-28 05:00N 39°00' W 090°41'1 0.8
2018-Apr-28 03:48N 38°59' W 090°40'0 0.3
2018-Apr-28 02:32N 38°59' W 090°40'2 4.0
2018-Apr-28 02:07N 38°57' W 090°40'0 4.1
2018-Apr-28 02:00N 38°57' W 090°40'2 3.9
2018-Apr-28 01:30N 38°55' W 090°39'2 3.9
2018-Apr-28 01:00N 38°54' W 090°38'2 3.8
2018-Apr-28 00:30N 38°52' W 090°36'2 3.9
2018-Apr-28 00:00N 38°52' W 090°34'2 3.7
2018-Apr-27 23:30N 38°53' W 090°32'2 3.9
2018-Apr-27 23:00N 38°55' W 090°30'2 3.6
2018-Apr-27 22:30N 38°56' W 090°29'2 3.4
2018-Apr-27 21:58N 38°57' W 090°27'2 3.9
2018-Apr-27 21:30N 38°58' W 090°25'2 3.8
2018-Apr-27 21:00N 38°57' W 090°23'2 4.2
2018-Apr-27 20:30N 38°56' W 090°20'2 4.2
2018-Apr-27 20:00N 38°55' W 090°18'2 4.3
2018-Apr-27 19:30N 38°55' W 090°15'2 3.9
2018-Apr-27 19:00N 38°54' W 090°13'2 3.2
2018-Apr-27 18:30N 38°53' W 090°11'2 3.9
2018-Apr-27 17:59N 38°52' W 090°09'0 0.7
2018-Apr-27 17:30N 38°52' W 090°09'2 3.5
2018-Apr-27 17:00N 38°51' W 090°07'2 3.0
2018-Apr-27 16:30N 38°49' W 090°07'1 2.0
2018-Apr-27 16:00N 38°49' W 090°07'3 5.1
2018-Apr-27 15:30N 38°46' W 090°08'2 4.8
2018-Apr-27 14:59N 38°44' W 090°10'2 4.1
2018-Apr-27 14:30N 38°42' W 090°11'1 1.6
2018-Apr-27 14:00N 38°42' W 090°11'2 4.0
2018-Apr-27 13:30N 38°40' W 090°11'1 1.7
2018-Apr-27 12:48N 38°38' W 090°11'0 0.0
2018-Apr-27 12:29N 38°38' W 090°11'0 0.0
2018-Apr-27 10:29N 38°38' W 090°11'0 0.0
2018-Apr-27 10:00N 38°38' W 090°11'0 0.0
2018-Apr-27 09:23N 38°38' W 090°11'0 0.0
2018-Apr-27 08:58N 38°38' W 090°11'0 0.0
2018-Apr-27 08:30N 38°38' W 090°11'0 0.7
2018-Apr-27 07:57N 38°38' W 090°11'2 2.6
2018-Apr-27 07:20N 38°36' W 090°11'0 1.1
2018-Apr-27 06:56N 38°36' W 090°11'0 0.7
2018-Apr-27 06:30N 38°36' W 090°12'3 0.4
2018-Apr-26 22:02N 38°39' W 090°11'0 9.2
2018-Apr-26 22:00N 38°39' W 090°11'3 4.4
2018-Apr-26 21:16N 38°42' W 090°11'1 3.6
2018-Apr-26 20:56N 38°43' W 090°10'2 4.1
2018-Apr-26 20:30N 38°45' W 090°09'3 4.7
2018-Apr-26 19:57N 38°47' W 090°07'3 7.4
2018-Apr-26 19:30N 38°50' W 090°06'3 5.4
2018-Apr-26 19:00N 38°52' W 090°09'1 2.4
2018-Apr-26 18:30N 38°53' W 090°10'3 6.9
2018-Apr-26 18:00N 38°55' W 090°14'4 7.3
2018-Apr-26 17:30N 38°55' W 090°19'4 7.4
2018-Apr-26 17:00N 38°57' W 090°23'4 7.4
2018-Apr-26 16:30N 38°57' W 090°27'4 7.3
2018-Apr-26 16:00N 38°55' W 090°31'4 7.2
2018-Apr-26 15:30N 38°52' W 090°34'3 6.7
2018-Apr-26 15:00N 38°54' W 090°38'4 7.6
2018-Apr-26 14:30N 38°57' W 090°40'3 6.6
2018-Apr-26 14:00N 39°00' W 090°41'1 1.7
2018-Apr-26 13:30N 39°01' W 090°42'3 5.2
2018-Apr-26 12:59N 39°04' W 090°43'0 0.5
2018-Apr-26 12:30N 39°04' W 090°42'0 0.0
2018-Apr-26 12:00N 39°04' W 090°42'0 0.0
2018-Apr-26 11:30N 39°04' W 090°42'0 0.0
2018-Apr-26 11:00N 39°04' W 090°42'0 0.0
2018-Apr-26 10:30N 39°04' W 090°42'0 0.0
2018-Apr-26 10:00N 39°04' W 090°42'0 0.0
2018-Apr-26 09:30N 39°04' W 090°42'1 2.3
2018-Apr-26 08:56N 39°05' W 090°41'3 6.5
2018-Apr-26 08:30N 39°08' W 090°42'  
2018-Apr-23 19:56N 39°10' W 090°43'2 3.6
2018-Apr-23 19:29N 39°08' W 090°42'3 3.9
2018-Apr-23 18:49N 39°06' W 090°41'1 3.6
2018-Apr-23 18:30N 39°05' W 090°41'2 3.7
2018-Apr-23 18:00N 39°03' W 090°43'2 3.3
2018-Apr-23 17:30N 39°02' W 090°42'2 3.3
2018-Apr-23 16:59N 39°00' W 090°41'0 0.6
2018-Apr-23 16:30N 39°00' W 090°41'1 1.7
2018-Apr-23 16:00N 38°59' W 090°40'0 0.0
2018-Apr-23 15:30N 38°59' W 090°40'0 0.0
2018-Apr-23 14:53N 38°59' W 090°40'1 3.6
2018-Apr-23 14:30N 38°58' W 090°40'2 4.0
2018-Apr-23 14:00N 38°56' W 090°40'2 3.9
2018-Apr-23 13:30N 38°54' W 090°38'2 3.9
2018-Apr-23 13:00N 38°53' W 090°37'2 3.9
2018-Apr-23 12:30N 38°52' W 090°35'2 4.2
2018-Apr-23 12:00N 38°53' W 090°32'2 4.2
2018-Apr-23 11:30N 38°54' W 090°31'2 4.2
2018-Apr-23 11:00N 38°56' W 090°29'2 4.1
2018-Apr-23 10:30N 38°57' W 090°27'2 4.0
2018-Apr-23 10:00N 38°58' W 090°25'2 4.2
2018-Apr-23 09:30N 38°57' W 090°22'2 4.4
2018-Apr-23 09:00N 38°56' W 090°20'2 4.3
2018-Apr-23 08:30N 38°55' W 090°17'2 4.5
2018-Apr-23 08:00N 38°55' W 090°14'2 4.4
2018-Apr-23 07:30N 38°54' W 090°12'2 4.6
2018-Apr-23 07:00N 38°52' W 090°10'1 1.9
2018-Apr-23 06:30N 38°52' W 090°09'2 3.7
2018-Apr-23 06:00N 38°51' W 090°07'2 3.4
2018-Apr-23 05:30N 38°49' W 090°07'2 4.4
2018-Apr-23 05:00N 38°47' W 090°07'0 0.0
2018-Apr-23 04:30N 38°47' W 090°07'2 3.9
2018-Apr-23 04:00N 38°45' W 090°09'1 2.4
2018-Apr-23 03:30N 38°44' W 090°09'1 1.5
2018-Apr-23 03:00N 38°44' W 090°10'2 3.8
2018-Apr-23 02:30N 38°42' W 090°11'0 0.3
2018-Apr-23 02:00N 38°42' W 090°11'2 3.2
2018-Apr-23 01:30N 38°40' W 090°11'1 1.5
2018-Apr-23 00:58N 38°40' W 090°11'1 2.3
2018-Apr-23 00:30N 38°39' W 090°11'2 3.1
2018-Apr-23 00:00N 38°37' W 090°11'2 2.8
2018-Apr-22 23:25N 38°36' W 090°12'5 0.7
2018-Apr-22 15:27N 38°31' W 090°16'5 8.8
2018-Apr-22 14:54N 38°35' W 090°13'3 8.9
2018-Apr-22 14:30N 38°38' W 090°11'3 6.5
2018-Apr-22 14:00N 38°41' W 090°11'1 2.3
2018-Apr-22 13:30N 38°42' W 090°11'3 5.5
2018-Apr-22 13:00N 38°45' W 090°09'3 5.5
2018-Apr-22 12:30N 38°47' W 090°07'4 7.5
2018-Apr-22 12:00N 38°51' W 090°07'2 4.0
2018-Apr-22 11:29N 38°52' W 090°09'3 5.7
2018-Apr-22 11:00N 38°54' W 090°12'3 6.7
2018-Apr-22 10:30N 38°55' W 090°16'3 5.8
2018-Apr-22 10:00N 38°56' W 090°19'4 7.2
2018-Apr-22 09:30N 38°58' W 090°23'3 7.0
2018-Apr-22 09:00N 38°57' W 090°28'4 7.2
2018-Apr-22 08:30N 38°55' W 090°31'3 6.9
2018-Apr-22 08:00N 38°52' W 090°34'3 6.4
2018-Apr-22 07:30N 38°54' W 090°38'4 7.3
2018-Apr-22 07:00N 38°57' W 090°40'3 6.9
2018-Apr-22 06:30N 39°00' W 090°41'1 1.9
2018-Apr-22 06:00N 39°01' W 090°42'2 4.1
2018-Apr-22 05:30N 39°03' W 090°43'0 0.0
2018-Apr-22 05:00N 39°03' W 090°43'0 0.0
2018-Apr-22 04:30N 39°03' W 090°43'0 0.0
2018-Apr-22 04:00N 39°03' W 090°43'0 0.0
2018-Apr-22 03:30N 39°03' W 090°43'0 0.0
2018-Apr-22 03:00N 39°03' W 090°43'0 0.0
2018-Apr-22 02:30N 39°03' W 090°43'0 0.0
2018-Apr-22 02:00N 39°03' W 090°43'0 0.1
2018-Apr-22 01:30N 39°03' W 090°43'0 0.1
2018-Apr-22 01:00N 39°03' W 090°43'3 6.3
2018-Apr-22 00:28N 39°06' W 090°41'3 7.3
2018-Apr-22 00:00N 39°09' W 090°43'  

Dump ship's entire track history